sensor_id;sensor_type;location;lat;lon;timestamp;P1;durP1;ratioP1;P2;durP2;ratioP2
72235;SDS011;60146;52.498;13.462;2023-04-23T00:00:57;12.27;;;6.40;;
72235;SDS011;60146;52.498;13.462;2023-04-23T00:03:26;11.03;;;6.83;;
72235;SDS011;60146;52.498;13.462;2023-04-23T00:05:53;11.07;;;6.40;;
72235;SDS011;60146;52.498;13.462;2023-04-23T00:08:21;14.00;;;7.63;;
72235;SDS011;60146;52.498;13.462;2023-04-23T00:10:47;15.07;;;7.37;;
72235;SDS011;60146;52.498;13.462;2023-04-23T00:13:12;12.57;;;6.93;;
72235;SDS011;60146;52.498;13.462;2023-04-23T00:15:38;13.30;;;7.83;;
72235;SDS011;60146;52.498;13.462;2023-04-23T00:18:03;11.50;;;6.70;;
72235;SDS011;60146;52.498;13.462;2023-04-23T00:20:29;13.10;;;7.50;;
72235;SDS011;60146;52.498;13.462;2023-04-23T00:22:54;12.33;;;7.07;;
72235;SDS011;60146;52.498;13.462;2023-04-23T00:25:19;11.30;;;6.77;;
72235;SDS011;60146;52.498;13.462;2023-04-23T00:27:45;13.43;;;6.93;;
72235;SDS011;60146;52.498;13.462;2023-04-23T00:30:11;15.60;;;7.20;;
72235;SDS011;60146;52.498;13.462;2023-04-23T00:32:37;13.37;;;6.93;;
72235;SDS011;60146;52.498;13.462;2023-04-23T00:35:02;10.33;;;6.40;;
72235;SDS011;60146;52.498;13.462;2023-04-23T00:37:28;12.27;;;7.00;;
72235;SDS011;60146;52.498;13.462;2023-04-23T00:39:53;11.33;;;6.60;;
72235;SDS011;60146;52.498;13.462;2023-04-23T00:42:19;15.30;;;8.20;;
72235;SDS011;60146;52.498;13.462;2023-04-23T00:44:45;12.03;;;7.20;;
72235;SDS011;60146;52.498;13.462;2023-04-23T00:47:11;12.53;;;6.77;;
72235;SDS011;60146;52.498;13.462;2023-04-23T00:49:36;11.23;;;6.60;;
72235;SDS011;60146;52.498;13.462;2023-04-23T00:52:03;11.83;;;6.67;;
72235;SDS011;60146;52.498;13.462;2023-04-23T00:54:28;13.43;;;6.57;;
72235;SDS011;60146;52.498;13.462;2023-04-23T00:56:54;12.67;;;6.63;;
72235;SDS011;60146;52.498;13.462;2023-04-23T00:59:22;12.30;;;6.53;;
72235;SDS011;60146;52.498;13.462;2023-04-23T01:01:49;10.10;;;6.30;;
72235;SDS011;60146;52.498;13.462;2023-04-23T01:04:15;12.43;;;6.47;;
72235;SDS011;60146;52.498;13.462;2023-04-23T01:06:41;11.50;;;6.53;;
72235;SDS011;60146;52.498;13.462;2023-04-23T01:09:08;12.87;;;6.83;;
72235;SDS011;60146;52.498;13.462;2023-04-23T01:11:37;12.13;;;6.67;;
72235;SDS011;60146;52.498;13.462;2023-04-23T01:14:04;9.80;;;6.47;;
72235;SDS011;60146;52.498;13.462;2023-04-23T01:16:30;11.03;;;6.53;;
72235;SDS011;60146;52.498;13.462;2023-04-23T01:18:56;14.47;;;6.90;;
72235;SDS011;60146;52.498;13.462;2023-04-23T01:21:22;11.53;;;6.73;;
72235;SDS011;60146;52.498;13.462;2023-04-23T01:23:49;11.37;;;7.07;;
72235;SDS011;60146;52.498;13.462;2023-04-23T01:26:14;12.73;;;6.53;;
72235;SDS011;60146;52.498;13.462;2023-04-23T01:28:41;13.33;;;7.30;;
72235;SDS011;60146;52.498;13.462;2023-04-23T01:31:07;12.53;;;6.73;;
72235;SDS011;60146;52.498;13.462;2023-04-23T01:33:33;10.77;;;6.87;;
72235;SDS011;60146;52.498;13.462;2023-04-23T01:35:59;11.50;;;7.13;;
72235;SDS011;60146;52.498;13.462;2023-04-23T01:38:27;15.27;;;7.30;;
72235;SDS011;60146;52.498;13.462;2023-04-23T01:40:55;12.93;;;6.70;;
72235;SDS011;60146;52.498;13.462;2023-04-23T01:43:21;12.73;;;7.33;;
72235;SDS011;60146;52.498;13.462;2023-04-23T01:45:46;11.63;;;6.40;;
72235;SDS011;60146;52.498;13.462;2023-04-23T01:48:12;12.13;;;6.47;;
72235;SDS011;60146;52.498;13.462;2023-04-23T01:50:38;15.07;;;7.53;;
72235;SDS011;60146;52.498;13.462;2023-04-23T01:53:04;9.87;;;6.60;;
72235;SDS011;60146;52.498;13.462;2023-04-23T01:55:29;10.77;;;6.37;;
72235;SDS011;60146;52.498;13.462;2023-04-23T01:57:56;12.67;;;6.57;;
72235;SDS011;60146;52.498;13.462;2023-04-23T02:00:21;15.37;;;7.20;;
72235;SDS011;60146;52.498;13.462;2023-04-23T02:02:47;10.93;;;7.07;;
72235;SDS011;60146;52.498;13.462;2023-04-23T02:05:17;10.73;;;6.33;;
72235;SDS011;60146;52.498;13.462;2023-04-23T02:07:47;13.60;;;7.10;;
72235;SDS011;60146;52.498;13.462;2023-04-23T02:10:14;10.23;;;6.60;;
72235;SDS011;60146;52.498;13.462;2023-04-23T02:12:40;11.10;;;6.67;;
72235;SDS011;60146;52.498;13.462;2023-04-23T02:15:06;13.33;;;7.17;;
72235;SDS011;60146;52.498;13.462;2023-04-23T02:17:33;9.73;;;6.43;;
72235;SDS011;60146;52.498;13.462;2023-04-23T02:19:59;13.83;;;7.10;;
72235;SDS011;60146;52.498;13.462;2023-04-23T02:22:25;12.20;;;7.43;;
72235;SDS011;60146;52.498;13.462;2023-04-23T02:24:51;11.57;;;6.93;;
72235;SDS011;60146;52.498;13.462;2023-04-23T02:30:39;12.97;;;7.90;;
72235;SDS011;60146;52.498;13.462;2023-04-23T02:33:10;15.70;;;8.73;;
72235;SDS011;60146;52.498;13.462;2023-04-23T02:35:38;14.47;;;8.33;;
72235;SDS011;60146;52.498;13.462;2023-04-23T02:38:03;16.87;;;7.90;;
72235;SDS011;60146;52.498;13.462;2023-04-23T02:40:29;15.93;;;7.70;;
72235;SDS011;60146;52.498;13.462;2023-04-23T02:42:55;14.00;;;8.57;;
72235;SDS011;60146;52.498;13.462;2023-04-23T02:45:20;16.03;;;8.73;;
72235;SDS011;60146;52.498;13.462;2023-04-23T02:47:45;15.23;;;8.40;;
72235;SDS011;60146;52.498;13.462;2023-04-23T02:50:11;17.20;;;9.07;;
72235;SDS011;60146;52.498;13.462;2023-04-23T02:52:36;14.10;;;8.80;;
72235;SDS011;60146;52.498;13.462;2023-04-23T02:55:02;15.80;;;9.17;;
72235;SDS011;60146;52.498;13.462;2023-04-23T02:57:28;15.20;;;9.07;;
72235;SDS011;60146;52.498;13.462;2023-04-23T02:59:53;17.97;;;10.07;;
72235;SDS011;60146;52.498;13.462;2023-04-23T03:02:19;16.23;;;9.20;;
72235;SDS011;60146;52.498;13.462;2023-04-23T03:04:44;20.63;;;10.53;;
72235;SDS011;60146;52.498;13.462;2023-04-23T03:07:10;17.30;;;9.80;;
72235;SDS011;60146;52.498;13.462;2023-04-23T03:09:37;17.20;;;9.70;;
72235;SDS011;60146;52.498;13.462;2023-04-23T03:12:02;15.07;;;9.10;;
72235;SDS011;60146;52.498;13.462;2023-04-23T03:14:28;14.33;;;9.30;;
72235;SDS011;60146;52.498;13.462;2023-04-23T03:16:53;30.60;;;13.10;;
72235;SDS011;60146;52.498;13.462;2023-04-23T03:19:19;23.50;;;10.83;;
72235;SDS011;60146;52.498;13.462;2023-04-23T03:21:44;26.13;;;12.67;;
72235;SDS011;60146;52.498;13.462;2023-04-23T03:24:11;21.27;;;11.17;;
72235;SDS011;60146;52.498;13.462;2023-04-23T03:26:37;23.23;;;11.53;;
72235;SDS011;60146;52.498;13.462;2023-04-23T03:29:02;22.10;;;11.83;;
72235;SDS011;60146;52.498;13.462;2023-04-23T03:31:30;32.27;;;13.70;;
72235;SDS011;60146;52.498;13.462;2023-04-23T03:33:55;29.87;;;13.03;;
72235;SDS011;60146;52.498;13.462;2023-04-23T03:36:20;31.83;;;12.90;;
72235;SDS011;60146;52.498;13.462;2023-04-23T03:38:46;27.23;;;12.23;;
72235;SDS011;60146;52.498;13.462;2023-04-23T03:41:11;18.90;;;10.03;;
72235;SDS011;60146;52.498;13.462;2023-04-23T03:43:36;23.20;;;11.97;;
72235;SDS011;60146;52.498;13.462;2023-04-23T03:46:02;18.37;;;11.30;;
72235;SDS011;60146;52.498;13.462;2023-04-23T03:48:27;20.47;;;11.10;;
72235;SDS011;60146;52.498;13.462;2023-04-23T03:50:53;18.20;;;10.73;;
72235;SDS011;60146;52.498;13.462;2023-04-23T03:53:18;19.80;;;10.73;;
72235;SDS011;60146;52.498;13.462;2023-04-23T03:55:44;16.93;;;10.07;;
72235;SDS011;60146;52.498;13.462;2023-04-23T03:58:09;17.00;;;9.60;;
72235;SDS011;60146;52.498;13.462;2023-04-23T04:00:34;16.13;;;9.77;;
72235;SDS011;60146;52.498;13.462;2023-04-23T04:03:00;16.10;;;9.73;;
72235;SDS011;60146;52.498;13.462;2023-04-23T04:05:26;16.53;;;9.93;;
72235;SDS011;60146;52.498;13.462;2023-04-23T04:07:52;18.23;;;10.30;;
72235;SDS011;60146;52.498;13.462;2023-04-23T04:10:18;16.83;;;10.17;;
72235;SDS011;60146;52.498;13.462;2023-04-23T04:12:43;21.13;;;10.70;;
72235;SDS011;60146;52.498;13.462;2023-04-23T04:15:11;16.27;;;10.47;;
72235;SDS011;60146;52.498;13.462;2023-04-23T04:17:37;19.57;;;11.17;;
72235;SDS011;60146;52.498;13.462;2023-04-23T04:20:02;19.03;;;11.50;;
72235;SDS011;60146;52.498;13.462;2023-04-23T04:22:28;22.07;;;12.10;;
72235;SDS011;60146;52.498;13.462;2023-04-23T04:24:53;20.33;;;12.33;;
72235;SDS011;60146;52.498;13.462;2023-04-23T04:27:20;21.60;;;11.90;;
72235;SDS011;60146;52.498;13.462;2023-04-23T04:29:45;17.53;;;10.40;;
72235;SDS011;60146;52.498;13.462;2023-04-23T04:32:12;17.50;;;9.73;;
72235;SDS011;60146;52.498;13.462;2023-04-23T04:34:37;18.37;;;10.20;;
72235;SDS011;60146;52.498;13.462;2023-04-23T04:37:03;20.53;;;10.97;;
72235;SDS011;60146;52.498;13.462;2023-04-23T04:39:28;19.43;;;10.30;;
72235;SDS011;60146;52.498;13.462;2023-04-23T04:41:54;16.40;;;9.67;;
72235;SDS011;60146;52.498;13.462;2023-04-23T04:44:21;15.17;;;9.07;;
72235;SDS011;60146;52.498;13.462;2023-04-23T04:46:46;14.50;;;8.50;;
72235;SDS011;60146;52.498;13.462;2023-04-23T04:49:12;16.20;;;9.60;;
72235;SDS011;60146;52.498;13.462;2023-04-23T04:51:38;16.50;;;10.20;;
72235;SDS011;60146;52.498;13.462;2023-04-23T04:54:05;20.43;;;10.33;;
72235;SDS011;60146;52.498;13.462;2023-04-23T04:56:31;24.17;;;10.93;;
72235;SDS011;60146;52.498;13.462;2023-04-23T04:59:00;19.87;;;10.50;;
72235;SDS011;60146;52.498;13.462;2023-04-23T05:01:26;20.17;;;9.80;;
72235;SDS011;60146;52.498;13.462;2023-04-23T05:03:53;19.03;;;10.43;;
72235;SDS011;60146;52.498;13.462;2023-04-23T05:06:20;13.90;;;8.70;;
72235;SDS011;60146;52.498;13.462;2023-04-23T05:08:46;14.93;;;8.73;;
72235;SDS011;60146;52.498;13.462;2023-04-23T05:11:17;17.70;;;9.17;;
72235;SDS011;60146;52.498;13.462;2023-04-23T05:13:44;30.10;;;13.90;;
72235;SDS011;60146;52.498;13.462;2023-04-23T05:16:10;24.17;;;11.60;;
72235;SDS011;60146;52.498;13.462;2023-04-23T05:18:39;16.80;;;9.83;;
72235;SDS011;60146;52.498;13.462;2023-04-23T05:21:05;38.17;;;15.87;;
72235;SDS011;60146;52.498;13.462;2023-04-23T05:23:31;27.77;;;13.43;;
72235;SDS011;60146;52.498;13.462;2023-04-23T05:25:57;24.87;;;11.87;;
72235;SDS011;60146;52.498;13.462;2023-04-23T05:28:23;18.87;;;10.40;;
72235;SDS011;60146;52.498;13.462;2023-04-23T05:30:49;21.70;;;11.70;;
72235;SDS011;60146;52.498;13.462;2023-04-23T05:33:15;19.57;;;9.37;;
72235;SDS011;60146;52.498;13.462;2023-04-23T05:35:40;14.63;;;8.27;;
72235;SDS011;60146;52.498;13.462;2023-04-23T05:38:06;17.10;;;8.73;;
72235;SDS011;60146;52.498;13.462;2023-04-23T05:40:31;18.00;;;9.80;;
72235;SDS011;60146;52.498;13.462;2023-04-23T05:42:57;17.50;;;8.77;;
72235;SDS011;60146;52.498;13.462;2023-04-23T05:45:23;12.33;;;7.60;;
72235;SDS011;60146;52.498;13.462;2023-04-23T05:47:48;11.80;;;7.57;;
72235;SDS011;60146;52.498;13.462;2023-04-23T05:50:14;12.50;;;6.93;;
72235;SDS011;60146;52.498;13.462;2023-04-23T05:52:39;11.63;;;7.57;;
72235;SDS011;60146;52.498;13.462;2023-04-23T05:55:05;11.13;;;7.73;;
72235;SDS011;60146;52.498;13.462;2023-04-23T05:57:31;13.57;;;7.37;;
72235;SDS011;60146;52.498;13.462;2023-04-23T05:59:57;11.80;;;6.80;;
72235;SDS011;60146;52.498;13.462;2023-04-23T06:02:22;12.20;;;6.17;;
72235;SDS011;60146;52.498;13.462;2023-04-23T06:04:47;10.43;;;6.07;;
72235;SDS011;60146;52.498;13.462;2023-04-23T06:07:13;9.87;;;5.90;;
72235;SDS011;60146;52.498;13.462;2023-04-23T06:09:39;10.23;;;5.80;;
72235;SDS011;60146;52.498;13.462;2023-04-23T06:12:05;10.03;;;5.87;;
72235;SDS011;60146;52.498;13.462;2023-04-23T06:14:30;10.17;;;6.00;;
72235;SDS011;60146;52.498;13.462;2023-04-23T06:16:55;11.03;;;5.50;;
72235;SDS011;60146;52.498;13.462;2023-04-23T06:19:21;7.53;;;5.37;;
72235;SDS011;60146;52.498;13.462;2023-04-23T06:21:49;9.60;;;5.80;;
72235;SDS011;60146;52.498;13.462;2023-04-23T06:24:15;11.27;;;5.47;;
72235;SDS011;60146;52.498;13.462;2023-04-23T06:26:40;8.37;;;4.73;;
72235;SDS011;60146;52.498;13.462;2023-04-23T06:29:05;9.40;;;5.27;;
72235;SDS011;60146;52.498;13.462;2023-04-23T06:31:31;7.50;;;4.93;;
72235;SDS011;60146;52.498;13.462;2023-04-23T06:33:56;7.70;;;4.50;;
72235;SDS011;60146;52.498;13.462;2023-04-23T06:36:21;6.77;;;4.60;;
72235;SDS011;60146;52.498;13.462;2023-04-23T06:38:47;7.60;;;4.87;;
72235;SDS011;60146;52.498;13.462;2023-04-23T06:41:13;8.23;;;4.57;;
72235;SDS011;60146;52.498;13.462;2023-04-23T06:43:39;8.43;;;5.40;;
72235;SDS011;60146;52.498;13.462;2023-04-23T06:46:05;7.30;;;4.60;;
72235;SDS011;60146;52.498;13.462;2023-04-23T06:48:30;8.00;;;5.20;;
72235;SDS011;60146;52.498;13.462;2023-04-23T06:50:56;9.77;;;4.90;;
72235;SDS011;60146;52.498;13.462;2023-04-23T06:53:22;10.13;;;5.50;;
72235;SDS011;60146;52.498;13.462;2023-04-23T06:55:47;8.57;;;4.43;;
72235;SDS011;60146;52.498;13.462;2023-04-23T06:58:14;7.07;;;4.20;;
72235;SDS011;60146;52.498;13.462;2023-04-23T07:00:40;6.37;;;4.73;;
72235;SDS011;60146;52.498;13.462;2023-04-23T07:03:05;7.53;;;4.40;;
72235;SDS011;60146;52.498;13.462;2023-04-23T07:05:31;8.80;;;4.87;;
72235;SDS011;60146;52.498;13.462;2023-04-23T07:07:56;7.90;;;4.60;;
72235;SDS011;60146;52.498;13.462;2023-04-23T07:10:21;7.60;;;4.13;;
72235;SDS011;60146;52.498;13.462;2023-04-23T07:12:47;7.87;;;3.83;;
72235;SDS011;60146;52.498;13.462;2023-04-23T07:15:12;6.93;;;3.80;;
72235;SDS011;60146;52.498;13.462;2023-04-23T07:17:38;6.63;;;3.80;;
72235;SDS011;60146;52.498;13.462;2023-04-23T07:20:03;8.37;;;4.47;;
72235;SDS011;60146;52.498;13.462;2023-04-23T07:22:30;7.60;;;4.23;;
72235;SDS011;60146;52.498;13.462;2023-04-23T07:24:56;7.03;;;4.27;;
72235;SDS011;60146;52.498;13.462;2023-04-23T07:27:21;6.30;;;3.90;;
72235;SDS011;60146;52.498;13.462;2023-04-23T07:29:46;7.37;;;4.40;;
72235;SDS011;60146;52.498;13.462;2023-04-23T07:32:12;6.80;;;4.10;;
72235;SDS011;60146;52.498;13.462;2023-04-23T07:34:37;8.17;;;4.60;;
72235;SDS011;60146;52.498;13.462;2023-04-23T07:37:03;8.57;;;4.60;;
72235;SDS011;60146;52.498;13.462;2023-04-23T07:39:28;10.77;;;4.90;;
72235;SDS011;60146;52.498;13.462;2023-04-23T07:41:54;9.87;;;5.07;;
72235;SDS011;60146;52.498;13.462;2023-04-23T07:44:20;8.07;;;5.43;;
72235;SDS011;60146;52.498;13.462;2023-04-23T07:46:46;8.80;;;5.20;;
72235;SDS011;60146;52.498;13.462;2023-04-23T07:49:11;8.07;;;5.47;;
72235;SDS011;60146;52.498;13.462;2023-04-23T07:51:37;7.93;;;5.33;;
72235;SDS011;60146;52.498;13.462;2023-04-23T07:54:02;12.53;;;5.70;;
72235;SDS011;60146;52.498;13.462;2023-04-23T07:56:28;11.47;;;5.80;;
72235;SDS011;60146;52.498;13.462;2023-04-23T07:58:56;10.77;;;5.87;;
72235;SDS011;60146;52.498;13.462;2023-04-23T08:01:24;10.17;;;5.50;;
72235;SDS011;60146;52.498;13.462;2023-04-23T08:03:50;12.57;;;5.70;;
72235;SDS011;60146;52.498;13.462;2023-04-23T08:06:16;10.33;;;5.73;;
72235;SDS011;60146;52.498;13.462;2023-04-23T08:08:42;10.90;;;6.10;;
72235;SDS011;60146;52.498;13.462;2023-04-23T08:11:08;9.93;;;5.37;;
72235;SDS011;60146;52.498;13.462;2023-04-23T08:13:34;10.33;;;6.50;;
72235;SDS011;60146;52.498;13.462;2023-04-23T08:15:59;9.83;;;5.27;;
72235;SDS011;60146;52.498;13.462;2023-04-23T08:18:25;9.47;;;5.30;;
72235;SDS011;60146;52.498;13.462;2023-04-23T08:20:50;9.63;;;5.30;;
72235;SDS011;60146;52.498;13.462;2023-04-23T08:23:16;11.17;;;5.70;;
72235;SDS011;60146;52.498;13.462;2023-04-23T08:25:41;10.23;;;6.07;;
72235;SDS011;60146;52.498;13.462;2023-04-23T08:28:06;10.87;;;5.63;;
72235;SDS011;60146;52.498;13.462;2023-04-23T08:30:32;13.07;;;5.90;;
72235;SDS011;60146;52.498;13.462;2023-04-23T08:32:57;8.97;;;5.33;;
72235;SDS011;60146;52.498;13.462;2023-04-23T08:35:23;8.47;;;5.50;;
72235;SDS011;60146;52.498;13.462;2023-04-23T08:37:48;8.67;;;5.37;;
72235;SDS011;60146;52.498;13.462;2023-04-23T08:40:14;8.20;;;5.10;;
72235;SDS011;60146;52.498;13.462;2023-04-23T08:42:45;8.83;;;5.53;;
72235;SDS011;60146;52.498;13.462;2023-04-23T08:45:15;8.47;;;5.23;;
72235;SDS011;60146;52.498;13.462;2023-04-23T08:47:41;8.37;;;5.43;;
72235;SDS011;60146;52.498;13.462;2023-04-23T08:50:07;7.60;;;5.17;;
72235;SDS011;60146;52.498;13.462;2023-04-23T08:52:35;9.30;;;5.27;;
72235;SDS011;60146;52.498;13.462;2023-04-23T08:55:05;10.40;;;5.10;;
72235;SDS011;60146;52.498;13.462;2023-04-23T08:57:34;8.27;;;4.72;;
72235;SDS011;60146;52.498;13.462;2023-04-23T09:00:02;7.13;;;4.87;;
72235;SDS011;60146;52.498;13.462;2023-04-23T09:02:30;7.97;;;4.93;;
72235;SDS011;60146;52.498;13.462;2023-04-23T09:04:56;7.87;;;5.50;;
72235;SDS011;60146;52.498;13.462;2023-04-23T09:07:22;8.53;;;4.67;;
72235;SDS011;60146;52.498;13.462;2023-04-23T09:09:48;8.70;;;5.07;;
72235;SDS011;60146;52.498;13.462;2023-04-23T09:12:13;6.93;;;4.63;;
72235;SDS011;60146;52.498;13.462;2023-04-23T09:14:39;8.30;;;5.30;;
72235;SDS011;60146;52.498;13.462;2023-04-23T09:17:04;8.53;;;5.33;;
72235;SDS011;60146;52.498;13.462;2023-04-23T09:19:30;9.57;;;5.50;;
72235;SDS011;60146;52.498;13.462;2023-04-23T09:21:56;8.27;;;5.20;;
72235;SDS011;60146;52.498;13.462;2023-04-23T09:24:23;9.53;;;5.23;;
72235;SDS011;60146;52.498;13.462;2023-04-23T09:26:50;8.60;;;5.50;;
72235;SDS011;60146;52.498;13.462;2023-04-23T09:29:17;8.87;;;5.10;;
72235;SDS011;60146;52.498;13.462;2023-04-23T09:31:45;7.93;;;5.30;;
72235;SDS011;60146;52.498;13.462;2023-04-23T09:34:20;9.10;;;5.30;;
72235;SDS011;60146;52.498;13.462;2023-04-23T09:36:48;12.07;;;6.00;;
72235;SDS011;60146;52.498;13.462;2023-04-23T09:39:15;7.80;;;4.93;;
72235;SDS011;60146;52.498;13.462;2023-04-23T09:41:42;8.33;;;4.87;;
72235;SDS011;60146;52.498;13.462;2023-04-23T09:44:10;6.03;;;4.03;;
72235;SDS011;60146;52.498;13.462;2023-04-23T09:46:39;6.23;;;4.20;;
72235;SDS011;60146;52.498;13.462;2023-04-23T09:49:06;7.33;;;4.00;;
72235;SDS011;60146;52.498;13.462;2023-04-23T09:51:36;5.20;;;3.40;;
72235;SDS011;60146;52.498;13.462;2023-04-23T09:54:07;4.27;;;2.80;;
72235;SDS011;60146;52.498;13.462;2023-04-23T09:56:35;3.63;;;2.53;;
72235;SDS011;60146;52.498;13.462;2023-04-23T09:59:00;3.23;;;2.40;;
72235;SDS011;60146;52.498;13.462;2023-04-23T10:01:26;3.53;;;2.23;;
72235;SDS011;60146;52.498;13.462;2023-04-23T10:03:53;3.87;;;2.00;;
72235;SDS011;60146;52.498;13.462;2023-04-23T10:06:25;3.17;;;2.07;;
72235;SDS011;60146;52.498;13.462;2023-04-23T10:08:53;3.53;;;2.40;;
72235;SDS011;60146;52.498;13.462;2023-04-23T10:11:20;4.83;;;2.40;;
72235;SDS011;60146;52.498;13.462;2023-04-23T10:13:48;5.23;;;2.60;;
72235;SDS011;60146;52.498;13.462;2023-04-23T10:16:13;4.37;;;2.83;;
72235;SDS011;60146;52.498;13.462;2023-04-23T10:18:39;4.13;;;2.60;;
72235;SDS011;60146;52.498;13.462;2023-04-23T10:21:04;4.03;;;2.70;;
72235;SDS011;60146;52.498;13.462;2023-04-23T10:23:31;4.13;;;2.10;;
72235;SDS011;60146;52.498;13.462;2023-04-23T10:25:58;3.60;;;2.60;;
72235;SDS011;60146;52.498;13.462;2023-04-23T10:28:25;4.03;;;2.63;;
72235;SDS011;60146;52.498;13.462;2023-04-23T10:30:56;3.77;;;2.37;;
72235;SDS011;60146;52.498;13.462;2023-04-23T10:33:22;4.30;;;2.90;;
72235;SDS011;60146;52.498;13.462;2023-04-23T10:35:50;5.17;;;2.60;;
72235;SDS011;60146;52.498;13.462;2023-04-23T10:38:17;4.40;;;2.67;;
72235;SDS011;60146;52.498;13.462;2023-04-23T10:40:44;4.70;;;2.97;;
72235;SDS011;60146;52.498;13.462;2023-04-23T10:43:13;6.67;;;4.03;;
72235;SDS011;60146;52.498;13.462;2023-04-23T10:45:38;8.07;;;4.40;;
72235;SDS011;60146;52.498;13.462;2023-04-23T10:48:03;7.97;;;4.90;;
72235;SDS011;60146;52.498;13.462;2023-04-23T10:50:31;7.70;;;4.53;;
72235;SDS011;60146;52.498;13.462;2023-04-23T10:52:59;7.73;;;4.20;;
72235;SDS011;60146;52.498;13.462;2023-04-23T10:55:27;5.97;;;3.80;;
72235;SDS011;60146;52.498;13.462;2023-04-23T11:00:22;5.23;;;3.20;;
72235;SDS011;60146;52.498;13.462;2023-04-23T11:02:48;6.20;;;3.47;;
72235;SDS011;60146;52.498;13.462;2023-04-23T11:05:14;6.30;;;3.63;;
72235;SDS011;60146;52.498;13.462;2023-04-23T11:07:41;6.60;;;3.40;;
72235;SDS011;60146;52.498;13.462;2023-04-23T11:10:12;7.03;;;3.60;;
72235;SDS011;60146;52.498;13.462;2023-04-23T11:12:39;5.33;;;3.57;;
72235;SDS011;60146;52.498;13.462;2023-04-23T11:15:09;5.60;;;3.40;;
72235;SDS011;60146;52.498;13.462;2023-04-23T11:22:46;7.27;;;4.53;;
72235;SDS011;60146;52.498;13.462;2023-04-23T11:25:13;8.97;;;5.07;;
72235;SDS011;60146;52.498;13.462;2023-04-23T11:27:59;9.43;;;5.33;;
72235;SDS011;60146;52.498;13.462;2023-04-23T11:30:28;9.07;;;5.33;;
72235;SDS011;60146;52.498;13.462;2023-04-23T11:32:55;9.55;;;5.15;;
72235;SDS011;60146;52.498;13.462;2023-04-23T11:35:22;12.23;;;5.27;;
72235;SDS011;60146;52.498;13.462;2023-04-23T11:37:52;9.80;;;5.07;;
72235;SDS011;60146;52.498;13.462;2023-04-23T11:40:21;8.07;;;4.70;;
72235;SDS011;60146;52.498;13.462;2023-04-23T11:42:48;6.87;;;4.63;;
72235;SDS011;60146;52.498;13.462;2023-04-23T11:45:16;7.17;;;4.10;;
72235;SDS011;60146;52.498;13.462;2023-04-23T11:47:52;6.57;;;4.03;;
72235;SDS011;60146;52.498;13.462;2023-04-23T11:50:20;7.63;;;4.40;;
72235;SDS011;60146;52.498;13.462;2023-04-23T11:52:46;6.97;;;4.53;;
72235;SDS011;60146;52.498;13.462;2023-04-23T11:55:12;8.18;;;4.45;;
72235;SDS011;60146;52.498;13.462;2023-04-23T11:57:44;6.38;;;4.10;;
72235;SDS011;60146;52.498;13.462;2023-04-23T12:00:18;6.38;;;3.70;;
72235;SDS011;60146;52.498;13.462;2023-04-23T12:02:56;5.40;;;3.85;;
72235;SDS011;60146;52.498;13.462;2023-04-23T12:05:22;5.57;;;3.60;;
72235;SDS011;60146;52.498;13.462;2023-04-23T12:07:54;6.72;;;4.00;;
72235;SDS011;60146;52.498;13.462;2023-04-23T12:13:21;5.07;;;3.83;;
72235;SDS011;60146;52.498;13.462;2023-04-23T12:15:48;7.20;;;4.28;;
72235;SDS011;60146;52.498;13.462;2023-04-23T12:18:14;7.82;;;4.20;;
72235;SDS011;60146;52.498;13.462;2023-04-23T12:20:40;6.78;;;3.83;;
72235;SDS011;60146;52.498;13.462;2023-04-23T12:23:06;5.97;;;3.85;;
72235;SDS011;60146;52.498;13.462;2023-04-23T12:25:32;6.03;;;3.80;;
72235;SDS011;60146;52.498;13.462;2023-04-23T12:27:58;3.33;;;2.60;;
72235;SDS011;60146;52.498;13.462;2023-04-23T12:30:27;5.00;;;2.90;;
72235;SDS011;60146;52.498;13.462;2023-04-23T12:33:01;4.70;;;2.67;;
72235;SDS011;60146;52.498;13.462;2023-04-23T12:35:43;4.00;;;2.50;;
72235;SDS011;60146;52.498;13.462;2023-04-23T12:38:20;2.70;;;2.22;;
72235;SDS011;60146;52.498;13.462;2023-04-23T12:40:47;3.03;;;2.17;;
72235;SDS011;60146;52.498;13.462;2023-04-23T12:43:13;3.38;;;2.25;;
72235;SDS011;60146;52.498;13.462;2023-04-23T12:45:39;2.65;;;1.80;;
72235;SDS011;60146;52.498;13.462;2023-04-23T12:48:04;1.70;;;1.45;;
72235;SDS011;60146;52.498;13.462;2023-04-23T12:50:30;2.55;;;1.80;;
72235;SDS011;60146;52.498;13.462;2023-04-23T12:52:58;1.52;;;1.40;;
72235;SDS011;60146;52.498;13.462;2023-04-23T12:55:23;1.93;;;1.20;;
72235;SDS011;60146;52.498;13.462;2023-04-23T12:57:49;1.35;;;1.02;;
72235;SDS011;60146;52.498;13.462;2023-04-23T13:00:14;1.33;;;1.15;;
72235;SDS011;60146;52.498;13.462;2023-04-23T13:02:40;1.55;;;1.20;;
72235;SDS011;60146;52.498;13.462;2023-04-23T13:05:05;1.33;;;1.00;;
72235;SDS011;60146;52.498;13.462;2023-04-23T13:07:31;1.10;;;1.00;;
72235;SDS011;60146;52.498;13.462;2023-04-23T13:09:56;1.60;;;1.23;;
72235;SDS011;60146;52.498;13.462;2023-04-23T13:12:23;7.15;;;3.13;;
72235;SDS011;60146;52.498;13.462;2023-04-23T13:14:49;1.90;;;1.50;;
72235;SDS011;60146;52.498;13.462;2023-04-23T13:17:14;1.75;;;1.13;;
72235;SDS011;60146;52.498;13.462;2023-04-23T13:19:39;1.20;;;1.10;;
72235;SDS011;60146;52.498;13.462;2023-04-23T13:22:05;1.27;;;1.10;;
72235;SDS011;60146;52.498;13.462;2023-04-23T13:24:31;1.40;;;1.20;;
72235;SDS011;60146;52.498;13.462;2023-04-23T13:26:57;2.95;;;1.40;;
72235;SDS011;60146;52.498;13.462;2023-04-23T13:29:22;2.30;;;1.13;;
72235;SDS011;60146;52.498;13.462;2023-04-23T13:31:48;1.65;;;1.20;;
72235;SDS011;60146;52.498;13.462;2023-04-23T13:34:13;2.58;;;1.27;;
72235;SDS011;60146;52.498;13.462;2023-04-23T13:36:39;2.55;;;1.23;;
72235;SDS011;60146;52.498;13.462;2023-04-23T13:39:07;1.27;;;1.17;;
72235;SDS011;60146;52.498;13.462;2023-04-23T13:41:33;2.78;;;1.30;;
72235;SDS011;60146;52.498;13.462;2023-04-23T13:43:59;1.48;;;1.38;;
72235;SDS011;60146;52.498;13.462;2023-04-23T13:46:24;4.57;;;1.88;;
72235;SDS011;60146;52.498;13.462;2023-04-23T13:48:51;1.73;;;1.58;;
72235;SDS011;60146;52.498;13.462;2023-04-23T13:51:17;2.42;;;1.52;;
72235;SDS011;60146;52.498;13.462;2023-04-23T13:53:42;3.60;;;1.63;;
72235;SDS011;60146;52.498;13.462;2023-04-23T13:56:08;2.78;;;1.63;;
72235;SDS011;60146;52.498;13.462;2023-04-23T13:58:33;2.50;;;1.70;;
72235;SDS011;60146;52.498;13.462;2023-04-23T14:00:59;3.10;;;1.73;;
72235;SDS011;60146;52.498;13.462;2023-04-23T14:03:24;3.58;;;1.40;;
72235;SDS011;60146;52.498;13.462;2023-04-23T14:05:50;2.78;;;1.40;;
72235;SDS011;60146;52.498;13.462;2023-04-23T14:08:15;2.90;;;1.70;;
72235;SDS011;60146;52.498;13.462;2023-04-23T14:10:41;2.97;;;1.60;;
72235;SDS011;60146;52.498;13.462;2023-04-23T14:13:06;3.33;;;1.85;;
72235;SDS011;60146;52.498;13.462;2023-04-23T14:15:31;3.38;;;1.70;;
72235;SDS011;60146;52.498;13.462;2023-04-23T14:17:57;2.20;;;1.50;;
72235;SDS011;60146;52.498;13.462;2023-04-23T14:20:23;4.90;;;2.10;;
72235;SDS011;60146;52.498;13.462;2023-04-23T14:22:50;5.75;;;1.90;;
72235;SDS011;60146;52.498;13.462;2023-04-23T14:25:33;2.38;;;1.60;;
72235;SDS011;60146;52.498;13.462;2023-04-23T14:30:27;2.63;;;1.67;;
72235;SDS011;60146;52.498;13.462;2023-04-23T14:32:53;1.65;;;1.40;;
72235;SDS011;60146;52.498;13.462;2023-04-23T14:35:20;3.78;;;1.90;;
72235;SDS011;60146;52.498;13.462;2023-04-23T14:37:47;3.00;;;1.98;;